createdAt,value
2019-02-25T00:00:30.757Z,6.25
2019-02-25T00:02:57.766Z,6.19
2019-02-25T00:05:24.723Z,6.12
2019-02-25T00:07:51.696Z,6.12
2019-02-25T00:10:18.665Z,6.06
2019-02-25T00:12:45.641Z,6.00
2019-02-25T00:15:12.620Z,6.06
2019-02-25T00:17:39.623Z,6.12
2019-02-25T00:20:08.276Z,6.00
2019-02-25T00:22:35.226Z,6.00
2019-02-25T00:25:02.766Z,6.06
2019-02-25T00:27:29.798Z,5.94
2019-02-25T00:29:56.839Z,6.00
2019-02-25T00:32:23.814Z,5.87
2019-02-25T00:34:50.818Z,5.94
2019-02-25T00:37:17.750Z,5.94
2019-02-25T00:39:44.728Z,5.94
2019-02-25T00:42:11.679Z,5.94
2019-02-25T00:44:38.689Z,5.81
2019-02-25T00:47:05.975Z,5.81
2019-02-25T00:49:32.944Z,5.75
2019-02-25T00:51:59.945Z,5.75
2019-02-25T00:54:26.913Z,5.75
2019-02-25T00:56:53.857Z,5.81
2019-02-25T00:59:20.801Z,5.81
2019-02-25T01:01:47.814Z,5.87
2019-02-25T01:04:14.769Z,5.87
2019-02-25T01:06:41.830Z,5.75
2019-02-25T01:09:08.776Z,5.69
2019-02-25T01:11:35.766Z,5.81
2019-02-25T01:14:02.748Z,5.81
2019-02-25T01:16:29.690Z,5.56
2019-02-25T01:18:56.649Z,5.81
2019-02-25T01:21:23.576Z,5.75
2019-02-25T01:23:50.548Z,5.75
2019-02-25T01:26:17.476Z,5.56
2019-02-25T01:28:44.374Z,5.62
2019-02-25T01:31:11.380Z,5.56
2019-02-25T01:33:38.312Z,5.44
2019-02-25T01:36:05.295Z,5.44
2019-02-25T01:38:32.234Z,5.44
2019-02-25T01:45:52.941Z,5.44
2019-02-25T01:48:19.948Z,5.31
2019-02-25T01:50:46.930Z,5.37
2019-02-25T01:53:13.890Z,5.31
2019-02-25T01:55:40.954Z,5.37
2019-02-25T01:58:07.902Z,5.25
2019-02-25T02:00:34.864Z,5.37
2019-02-25T02:03:01.799Z,5.19
2019-02-25T02:05:28.728Z,5.12
2019-02-25T02:07:55.680Z,5.25
2019-02-25T02:10:22.664Z,5.37
2019-02-25T02:12:49.608Z,5.37
2019-02-25T02:15:16.550Z,5.31
2019-02-25T02:17:43.576Z,5.37
2019-02-25T02:20:11.808Z,5.37
2019-02-25T02:22:38.739Z,5.19
2019-02-25T02:25:06.103Z,5.25
2019-02-25T02:27:33.057Z,5.31
2019-02-25T02:29:59.997Z,5.25
2019-02-25T02:32:26.919Z,5.25
2019-02-25T02:34:54.441Z,5.37
2019-02-25T02:37:21.444Z,5.12
2019-02-25T02:39:48.454Z,5.12
2019-02-25T02:42:18.902Z,5.25
2019-02-25T02:44:48.620Z,5.31
2019-02-25T02:47:24.256Z,5.19
2019-02-25T02:49:51.213Z,5.00
2019-02-25T02:52:18.186Z,5.31
2019-02-25T02:54:45.169Z,5.06
2019-02-25T02:57:12.130Z,5.19
2019-02-25T02:59:39.169Z,5.12
2019-02-25T03:02:06.127Z,5.12
2019-02-25T03:04:33.042Z,5.19
2019-02-25T03:06:59.967Z,5.12
2019-02-25T03:09:26.920Z,5.12
2019-02-25T03:11:53.813Z,5.12
2019-02-25T03:14:20.737Z,5.06
2019-02-25T03:16:47.703Z,5.37
2019-02-25T03:19:14.648Z,5.12
2019-02-25T03:21:41.657Z,5.12
2019-02-25T03:24:08.581Z,5.06
2019-02-25T03:26:35.530Z,5.06
2019-02-25T03:29:02.476Z,5.19
2019-02-25T03:31:29.407Z,5.12
2019-02-25T03:33:56.360Z,5.06
2019-02-25T03:36:23.277Z,5.12
2019-02-25T03:38:50.196Z,4.87
2019-02-25T03:41:17.108Z,5.00
2019-02-25T03:43:44.066Z,5.12
2019-02-25T03:46:10.987Z,4.81
2019-02-25T03:48:38.028Z,5.37
2019-02-25T03:51:04.978Z,4.94
2019-02-25T03:53:31.950Z,5.31
2019-02-25T03:58:33.902Z,5.00
2019-02-25T04:01:00.828Z,5.37
2019-02-25T04:03:27.759Z,5.12
2019-02-25T04:05:54.714Z,5.12
2019-02-25T04:08:21.679Z,4.81
2019-02-25T04:10:48.684Z,4.94
2019-02-25T04:13:15.635Z,4.75
2019-02-25T04:15:43.801Z,4.56
2019-02-25T04:18:10.783Z,4.69
2019-02-25T04:20:37.791Z,4.75
2019-02-25T04:23:04.754Z,4.87
2019-02-25T04:25:31.744Z,4.75
2019-02-25T04:27:58.658Z,4.94
2019-02-25T04:30:25.593Z,5.00
2019-02-25T04:32:52.549Z,4.56
2019-02-25T04:35:19.557Z,5.00
2019-02-25T04:37:46.505Z,4.62
2019-02-25T04:40:13.484Z,4.44
2019-02-25T04:42:40.526Z,4.56
2019-02-25T04:45:11.629Z,4.37
2019-02-25T04:47:38.643Z,4.62
2019-02-25T04:50:06.839Z,4.69
2019-02-25T04:52:33.761Z,4.62
2019-02-25T04:55:00.713Z,4.31
2019-02-25T04:57:27.648Z,4.62
2019-02-25T04:59:54.577Z,4.75
2019-02-25T05:02:21.576Z,4.56
2019-02-25T05:04:48.597Z,4.50
2019-02-25T05:07:15.552Z,4.37
2019-02-25T05:09:42.527Z,4.44
2019-02-25T05:12:09.477Z,4.44
2019-02-25T05:14:36.415Z,4.25
2019-02-25T05:17:03.457Z,4.50
2019-02-25T05:19:30.409Z,4.50
2019-02-25T05:21:57.430Z,4.50
2019-02-25T05:24:24.363Z,4.44
2019-02-25T05:26:51.321Z,4.37
2019-02-25T05:29:18.297Z,4.31
2019-02-25T05:31:45.378Z,4.31
2019-02-25T05:34:12.302Z,4.31
2019-02-25T05:36:39.623Z,4.06
2019-02-25T05:39:06.821Z,4.44
2019-02-25T05:41:33.759Z,4.06
2019-02-25T05:44:00.700Z,4.12
2019-02-25T05:46:27.703Z,3.94
2019-02-25T05:48:54.819Z,4.00
2019-02-25T05:51:22.536Z,3.87
2019-02-25T05:53:49.586Z,3.81
2019-02-25T05:56:16.841Z,3.81
2019-02-25T05:58:43.805Z,4.19
2019-02-25T06:01:10.863Z,3.81
2019-02-25T06:03:37.812Z,3.94
2019-02-25T06:06:04.830Z,4.25
2019-02-25T06:08:31.767Z,3.87
2019-02-25T06:10:58.768Z,4.00
2019-02-25T06:13:25.837Z,4.12
2019-02-25T06:15:53.695Z,4.00
2019-02-25T06:18:20.629Z,4.19
2019-02-25T06:20:47.622Z,4.44
2019-02-25T06:23:14.667Z,4.00
2019-02-25T06:25:41.712Z,4.31
2019-02-25T06:28:08.730Z,4.12
2019-02-25T06:30:35.681Z,4.25
2019-02-25T06:33:02.680Z,4.12
2019-02-25T06:35:29.642Z,4.31
2019-02-25T06:37:56.640Z,4.25
2019-02-25T06:40:23.613Z,4.31
2019-02-25T06:42:50.662Z,4.37
2019-02-25T06:45:18.141Z,4.50
2019-02-25T06:47:45.201Z,4.44
2019-02-25T06:50:12.190Z,4.31
2019-02-25T06:52:39.240Z,4.44
2019-02-25T06:55:07.455Z,4.44
2019-02-25T06:57:34.436Z,4.25
2019-02-25T07:00:01.465Z,4.31
2019-02-25T07:02:28.473Z,4.44
2019-02-25T07:05:01.094Z,4.62
2019-02-25T07:07:32.676Z,4.50
2019-02-25T07:10:04.278Z,4.69
2019-02-25T07:12:36.868Z,4.50
2019-02-25T07:15:13.113Z,4.62
2019-02-25T07:17:45.662Z,4.75
2019-02-25T07:20:19.228Z,4.69
2019-02-25T07:24:55.082Z,4.19
2019-02-25T07:27:27.852Z,4.31
2019-02-25T07:30:03.367Z,4.56
2019-02-25T07:32:35.974Z,4.50
2019-02-25T07:35:09.479Z,4.44
2019-02-25T07:37:42.269Z,4.44
2019-02-25T07:40:15.693Z,4.62
2019-02-25T07:42:56.331Z,4.69
2019-02-25T07:45:29.099Z,4.69
2019-02-25T07:48:03.704Z,4.62
2019-02-25T07:50:46.786Z,4.69
2019-02-25T07:53:12.443Z,4.69
2019-02-25T07:55:44.895Z,4.75
2019-02-25T07:58:31.617Z,4.75
2019-02-25T08:01:03.648Z,4.75
2019-02-25T08:03:39.059Z,4.94
2019-02-25T08:06:13.733Z,4.75
2019-02-25T08:08:55.279Z,5.00
2019-02-25T08:11:30.890Z,5.12
2019-02-25T08:14:07.446Z,5.31
2019-02-25T08:16:40.200Z,5.31
2019-02-25T08:24:09.213Z,5.25
2019-02-25T08:26:42.725Z,5.50
2019-02-25T08:29:21.379Z,5.37
2019-02-25T08:31:55.892Z,5.44
2019-02-25T08:34:58.707Z,5.69
2019-02-25T08:37:38.718Z,5.69
2019-02-25T08:40:11.664Z,5.81
2019-02-25T08:42:41.245Z,5.56
2019-02-25T08:45:14.429Z,5.62
2019-02-25T08:47:57.692Z,5.62
2019-02-25T08:50:25.089Z,5.69
2019-02-25T08:52:52.041Z,6.00
2019-02-25T08:55:19.050Z,5.87
2019-02-25T08:57:46.060Z,5.81
2019-02-25T09:00:13.228Z,5.94
2019-02-25T09:02:40.185Z,6.06
2019-02-25T09:05:09.117Z,6.12
2019-02-25T09:07:36.152Z,6.12
2019-02-25T09:10:03.523Z,6.19
2019-02-25T09:12:30.998Z,6.25
2019-02-25T09:14:58.319Z,6.25
2019-02-25T09:17:25.287Z,6.37
2019-02-25T09:19:52.251Z,6.44
2019-02-25T09:22:19.258Z,6.44
2019-02-25T09:24:46.292Z,6.56
2019-02-25T09:27:13.268Z,6.87
2019-02-25T09:29:40.316Z,6.75
2019-02-25T09:32:08.054Z,6.75
2019-02-25T09:34:35.065Z,6.87
2019-02-25T09:37:02.050Z,6.94
2019-02-25T09:39:29.052Z,7.06
2019-02-25T09:41:56.045Z,7.00
2019-02-25T09:44:23.076Z,7.06
2019-02-25T09:46:50.142Z,7.12
2019-02-25T09:49:17.222Z,7.12
2019-02-25T09:51:46.148Z,7.37
2019-02-25T09:54:13.974Z,7.31
2019-02-25T09:56:41.017Z,7.31
2019-02-25T09:59:08.058Z,7.37
2019-02-25T10:01:35.042Z,7.50
2019-02-25T10:04:02.220Z,7.44
2019-02-25T10:06:29.211Z,7.62
2019-02-25T10:08:56.183Z,7.75
2019-02-25T10:11:23.117Z,7.81
2019-02-25T10:13:51.809Z,7.87
2019-02-25T10:16:17.426Z,8.06
2019-02-25T10:18:44.429Z,8.00
2019-02-25T10:21:11.378Z,8.06
2019-02-25T10:23:40.389Z,8.19
2019-02-25T10:26:05.390Z,8.19
2019-02-25T10:28:32.383Z,8.13
2019-02-25T10:31:00.181Z,8.25
2019-02-25T10:33:27.176Z,8.50
2019-02-25T10:35:54.275Z,8.44
2019-02-25T10:38:21.569Z,8.44
2019-02-25T10:40:49.600Z,8.63
2019-02-25T10:43:15.467Z,8.56
2019-02-25T10:45:43.396Z,8.56
2019-02-25T10:48:09.472Z,8.63
2019-02-25T10:50:38.447Z,8.63
2019-02-25T10:53:03.837Z,8.81
2019-02-25T10:55:33.391Z,8.88
2019-02-25T10:58:02.008Z,8.94
2019-02-25T11:00:27.452Z,8.88
2019-02-25T11:02:56.447Z,8.88
2019-02-25T11:05:23.182Z,9.06
2019-02-25T11:07:48.609Z,9.00
2019-02-25T11:10:48.671Z,9.00
2019-02-25T11:13:14.453Z,9.06
2019-02-25T11:15:42.395Z,9.13
2019-02-25T11:18:08.532Z,9.13
2019-02-25T11:20:37.666Z,9.19
2019-02-25T11:23:03.244Z,9.50
2019-02-25T11:25:30.514Z,9.38
2019-02-25T11:27:57.504Z,9.38
2019-02-25T11:30:24.614Z,9.56
2019-02-25T11:32:53.494Z,9.56
2019-02-25T11:35:18.697Z,9.56
2019-02-25T11:37:45.679Z,9.69
2019-02-25T11:40:12.935Z,9.81
2019-02-25T11:42:40.056Z,9.81
2019-02-25T11:45:08.838Z,9.94
2019-02-25T11:47:35.965Z,10.00
2019-02-25T11:50:03.544Z,10.06
2019-02-25T11:52:30.518Z,10.06
2019-02-25T11:54:57.607Z,10.31
2019-02-25T11:57:24.606Z,10.44
2019-02-25T11:59:51.594Z,10.38
2019-02-25T12:02:25.213Z,10.50
2019-02-25T12:04:45.813Z,10.69
2019-02-25T12:07:12.814Z,10.81
2019-02-25T12:09:39.820Z,10.81
2019-02-25T12:12:06.909Z,10.94
2019-02-25T12:14:34.027Z,11.00
2019-02-25T12:17:01.664Z,11.12
2019-02-25T12:19:28.683Z,11.12
2019-02-25T12:21:55.759Z,11.06
2019-02-25T12:24:22.839Z,11.00
2019-02-25T12:26:49.935Z,11.50
2019-02-25T12:29:16.928Z,11.38
2019-02-25T12:31:43.888Z,11.69
2019-02-25T12:34:11.056Z,11.50
2019-02-25T12:36:38.169Z,11.56
2019-02-25T12:39:06.845Z,11.69
2019-02-25T12:41:33.828Z,11.63
2019-02-25T12:44:00.958Z,11.69
2019-02-25T12:46:28.582Z,11.69
2019-02-25T12:48:55.578Z,11.63
2019-02-25T12:51:22.783Z,11.75
2019-02-25T12:53:49.792Z,11.56
2019-02-25T12:56:16.793Z,11.69
2019-02-25T12:58:43.883Z,11.63
2019-02-25T13:01:10.865Z,11.75
2019-02-25T13:03:37.968Z,11.75
2019-02-25T13:06:04.949Z,11.81
2019-02-25T13:08:31.961Z,12.13
2019-02-25T13:10:59.005Z,11.81
2019-02-25T13:13:26.797Z,11.81
2019-02-25T13:15:53.862Z,11.88
2019-02-25T13:18:20.868Z,11.81
2019-02-25T13:20:48.036Z,12.13
2019-02-25T13:23:15.100Z,12.06
2019-02-25T13:25:42.080Z,12.13
2019-02-25T13:28:09.038Z,12.25
2019-02-25T13:30:36.112Z,12.50
2019-02-25T13:33:03.093Z,12.06
2019-02-25T13:35:30.122Z,12.25
2019-02-25T13:37:58.090Z,12.06
2019-02-25T13:40:25.594Z,12.00
2019-02-25T13:42:52.627Z,11.94
2019-02-25T13:45:19.624Z,11.94
2019-02-25T13:47:46.698Z,12.06
2019-02-25T13:50:14.114Z,12.06
2019-02-25T13:52:47.835Z,12.06
2019-02-25T13:55:08.586Z,12.06
2019-02-25T13:57:35.614Z,12.06
2019-02-25T14:00:02.726Z,12.37
2019-02-25T14:02:29.736Z,12.25
2019-02-25T14:04:56.761Z,12.50
2019-02-25T14:07:23.804Z,12.75
2019-02-25T14:09:50.816Z,12.56
2019-02-25T14:12:17.802Z,12.69
2019-02-25T14:14:44.814Z,12.56
2019-02-25T14:17:11.888Z,12.37
2019-02-25T14:19:39.596Z,12.50
2019-02-25T14:22:06.601Z,12.69
2019-02-25T14:24:33.617Z,12.56
2019-02-25T14:27:00.619Z,12.44
2019-02-25T14:29:27.605Z,12.69
2019-02-25T14:31:54.627Z,12.69
2019-02-25T14:34:21.588Z,12.50
2019-02-25T14:36:50.468Z,12.63
2019-02-25T14:39:24.897Z,12.56
2019-02-25T14:41:47.728Z,12.50
2019-02-25T14:44:14.767Z,12.69
2019-02-25T14:46:41.877Z,12.50
2019-02-25T14:49:08.895Z,12.88
2019-02-25T14:51:36.195Z,12.63
2019-02-25T14:54:03.318Z,12.81
2019-02-25T14:56:33.603Z,12.81
2019-02-25T14:59:03.357Z,12.81
2019-02-25T15:01:29.403Z,12.81
2019-02-25T15:03:55.979Z,12.69
2019-02-25T15:06:21.817Z,12.50
2019-02-25T15:08:48.933Z,12.56
2019-02-25T15:11:15.906Z,12.63
2019-02-25T15:13:42.929Z,12.50
2019-02-25T15:16:10.057Z,12.50
2019-02-25T15:18:37.123Z,12.37
2019-02-25T15:21:04.650Z,12.75
2019-02-25T15:23:31.544Z,12.50
2019-02-25T15:26:05.036Z,12.56
2019-02-25T15:28:25.636Z,12.69
2019-02-25T15:30:52.690Z,12.56
2019-02-25T15:33:19.650Z,12.44
2019-02-25T15:35:46.701Z,12.50
2019-02-25T15:38:13.853Z,12.69
2019-02-25T15:40:40.802Z,12.63
2019-02-25T15:43:12.561Z,12.56
2019-02-25T15:45:40.643Z,13.00
2019-02-25T15:48:07.093Z,12.75
2019-02-25T15:50:34.117Z,13.00
2019-02-25T15:57:57.100Z,12.69
2019-02-25T16:00:25.406Z,12.37
2019-02-25T16:02:52.121Z,12.56
2019-02-25T16:05:19.235Z,12.44
2019-02-25T16:07:46.289Z,12.25
2019-02-25T16:10:14.144Z,12.25
2019-02-25T16:12:40.623Z,12.13
2019-02-25T16:15:11.131Z,12.06
2019-02-25T16:17:37.751Z,12.00
2019-02-25T16:20:06.794Z,11.94
2019-02-25T16:22:34.030Z,12.19
2019-02-25T16:25:00.704Z,12.25
2019-02-25T16:27:27.378Z,11.94
2019-02-25T16:29:55.756Z,11.88
2019-02-25T16:32:21.842Z,11.81
2019-02-25T16:34:48.709Z,11.81
2019-02-25T16:37:17.672Z,11.63
2019-02-25T16:39:43.213Z,11.63
2019-02-25T16:42:10.288Z,11.81
2019-02-25T16:44:37.441Z,11.88
2019-02-25T16:47:04.556Z,12.06
2019-02-25T16:49:33.903Z,11.88
2019-02-25T16:52:01.893Z,12.13
2019-02-25T16:54:27.082Z,11.88
2019-02-25T16:56:55.170Z,11.63
2019-02-25T16:59:23.034Z,11.69
2019-02-25T17:01:49.353Z,11.50
2019-02-25T17:04:19.797Z,11.44
2019-02-25T17:06:44.987Z,11.38
2019-02-25T17:09:13.844Z,11.25
2019-02-25T17:11:40.127Z,11.25
2019-02-25T17:14:06.866Z,11.31
2019-02-25T17:16:33.948Z,11.38
2019-02-25T17:19:01.351Z,11.69
2019-02-25T17:21:28.737Z,11.56
2019-02-25T17:23:56.273Z,11.25
2019-02-25T17:31:31.811Z,11.19
2019-02-25T17:33:57.887Z,11.06
2019-02-25T17:36:24.415Z,11.31
2019-02-25T17:38:52.032Z,11.12
2019-02-25T17:41:18.844Z,11.25
2019-02-25T17:43:49.668Z,11.12
2019-02-25T17:46:16.721Z,11.12
2019-02-25T17:48:45.898Z,11.25
2019-02-25T17:51:10.869Z,11.12
2019-02-25T17:53:38.143Z,10.88
2019-02-25T17:56:05.184Z,10.88
2019-02-25T17:58:32.132Z,11.19
2019-02-25T18:01:01.057Z,10.81
2019-02-25T18:03:26.602Z,10.75
2019-02-25T18:05:53.657Z,10.75
2019-02-25T18:08:20.714Z,10.88
2019-02-25T18:10:48.468Z,10.69
2019-02-25T18:13:15.081Z,10.88
2019-02-25T18:15:42.210Z,10.63
2019-02-25T18:18:11.824Z,10.69
2019-02-25T18:20:36.684Z,10.81
2019-02-25T18:23:04.954Z,10.69
2019-02-25T18:25:30.549Z,10.75
2019-02-25T18:27:57.548Z,10.75
2019-02-25T18:30:26.449Z,10.75
2019-02-25T18:32:55.116Z,10.75
2019-02-25T18:35:22.836Z,10.75
2019-02-25T18:37:48.693Z,10.56
2019-02-25T18:40:18.446Z,10.75
2019-02-25T18:42:43.756Z,10.63
2019-02-25T18:45:11.582Z,10.63
2019-02-25T18:47:38.064Z,10.44
2019-02-25T18:50:06.633Z,10.50
2019-02-25T18:52:34.126Z,10.50
2019-02-25T18:55:02.766Z,10.69
2019-02-25T18:57:29.459Z,10.56
2019-02-25T18:59:56.904Z,10.50
2019-02-25T19:02:22.388Z,10.31
2019-02-25T19:04:49.544Z,10.25
2019-02-25T19:07:16.645Z,10.38
2019-02-25T19:09:46.680Z,10.56
2019-02-25T19:12:10.885Z,10.38
2019-02-25T19:14:38.083Z,10.38
2019-02-25T19:17:06.526Z,10.19
2019-02-25T19:19:38.157Z,10.19
2019-02-25T19:22:03.241Z,10.19
2019-02-25T19:24:33.234Z,10.31
2019-02-25T19:26:58.125Z,10.38
2019-02-25T19:29:27.963Z,10.25
2019-02-25T19:31:56.417Z,10.13
2019-02-25T19:34:22.956Z,10.25
2019-02-25T19:36:51.497Z,10.19
2019-02-25T19:39:21.651Z,10.13
2019-02-25T19:41:49.243Z,10.06
2019-02-25T19:44:21.095Z,10.13
2019-02-25T19:46:48.636Z,10.44
2019-02-25T19:49:15.967Z,10.13
2019-02-25T19:51:43.834Z,10.25
2019-02-25T19:54:09.794Z,10.31
2019-02-25T19:56:36.191Z,10.31
2019-02-25T19:59:05.668Z,9.94
2019-02-25T20:01:31.286Z,10.06
2019-02-25T20:03:59.582Z,9.81
2019-02-25T20:06:27.939Z,10.13
2019-02-25T20:08:55.913Z,10.00
2019-02-25T20:11:21.419Z,10.06
2019-02-25T20:13:49.446Z,10.06
2019-02-25T20:16:20.101Z,9.94
2019-02-25T20:18:44.251Z,9.94
2019-02-25T20:21:12.713Z,9.88
2019-02-25T20:23:45.229Z,9.88
2019-02-25T20:26:13.438Z,9.81
2019-02-25T20:28:39.172Z,9.94
2019-02-25T20:31:07.920Z,9.75
2019-02-25T20:33:35.130Z,9.63
2019-02-25T20:36:01.298Z,9.75
2019-02-25T20:38:29.437Z,9.81
2019-02-25T20:40:55.354Z,9.75
2019-02-25T20:43:23.692Z,9.50
2019-02-25T20:45:54.088Z,9.44
2019-02-25T20:48:18.791Z,9.44
2019-02-25T20:50:46.619Z,9.50
2019-02-25T20:53:13.830Z,9.56
2019-02-25T20:55:40.903Z,9.50
2019-02-25T20:58:08.561Z,9.50
2019-02-25T21:00:39.015Z,9.50
2019-02-25T21:03:03.393Z,9.44
2019-02-25T21:05:31.402Z,9.31
2019-02-25T21:07:59.943Z,9.31
2019-02-25T21:10:27.884Z,9.56
2019-02-25T21:12:54.785Z,9.56
2019-02-25T21:15:20.904Z,9.56
2019-02-25T21:17:48.083Z,9.06
2019-02-25T21:20:15.203Z,9.31
2019-02-25T21:22:44.419Z,9.38
2019-02-25T21:25:11.539Z,9.13
2019-02-25T21:27:40.839Z,9.13
2019-02-25T21:30:09.492Z,9.31
2019-02-25T21:32:36.622Z,9.13
2019-02-25T21:35:05.219Z,9.06
2019-02-25T21:37:32.869Z,9.06
2019-02-25T21:40:00.961Z,9.06
2019-02-25T21:42:26.963Z,8.94
2019-02-25T21:44:54.683Z,9.25
2019-02-25T21:47:23.928Z,9.06
2019-02-25T21:49:48.902Z,9.13
2019-02-25T21:52:17.504Z,9.19
2019-02-25T21:54:44.880Z,9.25
2019-02-25T21:57:10.099Z,9.38
2019-02-25T21:59:38.721Z,9.00
2019-02-25T22:02:04.395Z,9.06
2019-02-25T22:04:32.415Z,9.06
2019-02-25T22:07:00.176Z,9.19
2019-02-25T22:09:36.354Z,8.81
2019-02-25T22:11:53.748Z,8.75
2019-02-25T22:14:21.781Z,9.00
2019-02-25T22:16:49.884Z,8.81
2019-02-25T22:19:16.492Z,8.81
2019-02-25T22:21:42.094Z,9.13
2019-02-25T22:24:09.702Z,8.94
2019-02-25T22:26:37.672Z,9.00
2019-02-25T22:29:03.818Z,9.00
2019-02-25T22:31:33.007Z,8.75
2019-02-25T22:33:57.763Z,8.69
2019-02-25T22:36:24.756Z,8.50
2019-02-25T22:38:51.698Z,8.69
2019-02-25T22:41:20.479Z,8.63
2019-02-25T22:43:47.707Z,8.50
2019-02-25T22:46:12.706Z,8.75
2019-02-25T22:48:41.993Z,8.81
2019-02-25T22:51:07.035Z,8.81
2019-02-25T22:53:33.746Z,8.56
2019-02-25T22:56:00.662Z,8.56
2019-02-25T22:58:28.018Z,8.63
2019-02-25T23:00:58.299Z,8.56
2019-02-25T23:03:24.912Z,8.25
2019-02-25T23:05:50.882Z,8.19
2019-02-25T23:08:18.201Z,8.63
2019-02-25T23:10:44.470Z,8.25
2019-02-25T23:13:10.778Z,8.25
2019-02-25T23:15:37.764Z,8.06
2019-02-25T23:18:05.748Z,8.38
2019-02-25T23:20:33.925Z,8.31
2019-02-25T23:23:00.087Z,8.13
2019-02-25T23:25:25.852Z,8.25
2019-02-25T23:27:53.503Z,8.13
2019-02-25T23:30:21.338Z,8.13
2019-02-25T23:32:46.799Z,8.19
2019-02-25T23:35:15.907Z,8.00
2019-02-25T23:37:40.782Z,8.25
2019-02-25T23:40:09.470Z,8.06
2019-02-25T23:42:37.113Z,8.31
2019-02-25T23:45:01.813Z,8.06
2019-02-25T23:47:29.061Z,8.19
2019-02-25T23:49:55.718Z,7.87
2019-02-25T23:52:22.669Z,8.25
2019-02-25T23:54:51.588Z,8.19
2019-02-25T23:57:17.412Z,8.25
2019-02-25T23:59:44.364Z,8.13
